createdAt,value
2023-11-06T00:01:39.986Z,10.70
2023-11-06T00:04:07.947Z,10.80
2023-11-06T00:06:35.830Z,10.80
2023-11-06T00:09:05.169Z,10.70
2023-11-06T00:11:33.017Z,10.80
2023-11-06T00:14:00.986Z,10.70
2023-11-06T00:16:30.375Z,10.80
2023-11-06T00:18:58.227Z,10.70
2023-11-06T00:21:28.613Z,10.80
2023-11-06T00:23:57.053Z,10.80
2023-11-06T00:26:24.943Z,10.80
2023-11-06T00:28:57.185Z,10.80
2023-11-06T00:31:27.432Z,10.80
2023-11-06T00:33:56.977Z,10.80
2023-11-06T00:36:25.713Z,10.80
2023-11-06T00:38:54.307Z,10.80
2023-11-06T00:41:22.382Z,10.80
2023-11-06T00:43:50.449Z,10.80
2023-11-06T00:46:18.287Z,10.80
2023-11-06T00:48:46.241Z,10.80
2023-11-06T00:51:15.494Z,10.90
2023-11-06T00:53:43.557Z,10.80
2023-11-06T00:56:11.510Z,10.80
2023-11-06T00:58:39.860Z,10.80
2023-11-06T01:01:08.668Z,10.90
2023-11-06T01:03:36.637Z,10.90
2023-11-06T01:06:04.944Z,10.90
2023-11-06T01:08:34.122Z,10.80
2023-11-06T01:11:02.584Z,10.80
2023-11-06T01:13:30.414Z,10.90
2023-11-06T01:15:58.862Z,10.80
2023-11-06T01:18:26.696Z,10.90
2023-11-06T01:20:55.398Z,10.90
2023-11-06T01:23:23.264Z,10.90
2023-11-06T01:25:52.510Z,10.90
2023-11-06T01:28:20.399Z,10.90
2023-11-06T01:30:48.607Z,10.90
2023-11-06T01:33:17.458Z,10.90
2023-11-06T01:35:45.442Z,10.90
2023-11-06T01:38:13.372Z,10.90
2023-11-06T01:40:41.186Z,10.90
2023-11-06T01:43:10.401Z,10.90
2023-11-06T01:45:40.445Z,10.90
2023-11-06T01:48:08.409Z,10.90
2023-11-06T01:50:38.064Z,10.90
2023-11-06T01:53:10.118Z,10.90
2023-11-06T01:55:38.402Z,10.90
2023-11-06T01:58:06.271Z,10.90
2023-11-06T02:00:37.608Z,10.90
2023-11-06T02:03:08.149Z,10.90
2023-11-06T02:05:36.673Z,10.90
2023-11-06T02:08:04.779Z,10.90
2023-11-06T02:10:33.310Z,10.90
2023-11-06T02:13:01.163Z,10.90
2023-11-06T02:15:29.352Z,10.90
2023-11-06T02:17:58.676Z,10.90
2023-11-06T02:20:26.826Z,10.90
2023-11-06T02:23:02.992Z,10.90
2023-11-06T02:25:31.696Z,10.90
2023-11-06T02:27:59.550Z,10.80
2023-11-06T02:30:28.195Z,10.90
2023-11-06T02:32:56.161Z,10.90
2023-11-06T02:35:24.572Z,10.90
2023-11-06T02:37:53.169Z,10.90
2023-11-06T02:40:22.721Z,10.90
2023-11-06T02:42:50.790Z,10.90
2023-11-06T02:45:18.926Z,10.90
2023-11-06T02:47:46.767Z,10.90
2023-11-06T02:50:15.268Z,10.90
2023-11-06T02:52:43.522Z,10.90
2023-11-06T02:55:11.797Z,10.90
2023-11-06T02:57:40.959Z,10.90
2023-11-06T03:00:12.723Z,10.90
2023-11-06T03:02:40.809Z,10.90
2023-11-06T03:05:09.603Z,10.90
2023-11-06T03:07:37.674Z,10.90
2023-11-06T03:10:06.525Z,10.90
2023-11-06T03:12:34.613Z,10.90
2023-11-06T03:15:04.420Z,10.90
2023-11-06T03:17:32.294Z,10.90
2023-11-06T03:20:00.254Z,10.90
2023-11-06T03:22:28.115Z,10.90
2023-11-06T03:24:55.913Z,10.90
2023-11-06T03:27:23.945Z,10.80
2023-11-06T03:29:51.862Z,10.90
2023-11-06T03:32:21.639Z,10.90
2023-11-06T03:34:49.538Z,10.90
2023-11-06T03:37:17.375Z,10.90
2023-11-06T03:39:45.215Z,10.90
2023-11-06T03:42:15.099Z,10.90
2023-11-06T03:44:42.945Z,10.80
2023-11-06T03:47:10.810Z,10.80
2023-11-06T03:49:40.490Z,10.90
2023-11-06T03:52:12.000Z,10.90
2023-11-06T03:54:41.187Z,10.80
2023-11-06T03:57:09.034Z,10.90
2023-11-06T03:59:36.918Z,10.90
2023-11-06T04:02:04.861Z,10.90
2023-11-06T04:04:32.782Z,10.90
2023-11-06T04:07:01.921Z,10.80
2023-11-06T04:09:29.796Z,10.80
2023-11-06T04:11:57.554Z,10.80
2023-11-06T04:14:25.567Z,10.90
2023-11-06T04:16:53.397Z,10.90
2023-11-06T04:19:21.317Z,10.80
2023-11-06T04:21:49.350Z,10.80
2023-11-06T04:24:18.601Z,10.80
2023-11-06T04:26:46.403Z,10.80
2023-11-06T04:29:14.270Z,10.90
2023-11-06T04:31:42.621Z,10.90
2023-11-06T04:34:10.440Z,10.90
2023-11-06T04:36:38.666Z,10.80
2023-11-06T04:39:09.909Z,10.90
2023-11-06T04:41:39.198Z,10.80
2023-11-06T04:44:07.501Z,10.80
2023-11-06T04:46:35.409Z,10.80
2023-11-06T04:49:03.388Z,10.80
2023-11-06T04:51:31.447Z,10.80
2023-11-06T04:53:59.316Z,10.80
2023-11-06T04:56:27.191Z,10.80
2023-11-06T04:58:56.456Z,10.80
2023-11-06T05:01:25.856Z,10.80
2023-11-06T05:03:54.464Z,10.80
2023-11-06T05:06:22.404Z,10.80
2023-11-06T05:08:50.295Z,10.80
2023-11-06T05:11:18.268Z,10.80
2023-11-06T05:13:46.226Z,10.80
2023-11-06T05:16:15.551Z,10.80
2023-11-06T05:18:44.277Z,10.80
2023-11-06T05:21:12.065Z,10.80
2023-11-06T05:23:39.973Z,10.80
2023-11-06T05:26:09.357Z,10.80
2023-11-06T05:28:37.206Z,10.80
2023-11-06T05:31:06.184Z,10.80
2023-11-06T05:33:35.530Z,10.80
2023-11-06T05:36:03.714Z,10.80
2023-11-06T05:38:31.656Z,10.70
2023-11-06T05:40:59.492Z,10.80
2023-11-06T05:43:27.386Z,10.70
2023-11-06T05:45:55.213Z,10.70
2023-11-06T05:48:23.158Z,10.70
2023-11-06T05:50:52.349Z,10.70
2023-11-06T05:53:20.537Z,10.70
2023-11-06T05:55:49.158Z,10.70
2023-11-06T05:58:17.930Z,10.70
2023-11-06T06:00:47.292Z,10.70
2023-11-06T06:03:16.630Z,10.70
2023-11-06T06:05:45.097Z,10.70
2023-11-06T06:08:16.537Z,10.70
2023-11-06T06:10:44.587Z,10.70
2023-11-06T06:13:12.407Z,10.70
2023-11-06T06:15:40.244Z,10.70
2023-11-06T06:18:08.138Z,10.70
2023-11-06T06:20:36.102Z,10.70
2023-11-06T06:23:04.374Z,10.70
2023-11-06T06:25:33.572Z,10.70
2023-11-06T06:28:01.555Z,10.70
2023-11-06T06:30:31.753Z,10.70
2023-11-06T06:33:00.075Z,10.70
2023-11-06T06:35:27.983Z,10.70
2023-11-06T06:37:56.572Z,10.70
2023-11-06T06:40:26.575Z,10.70
2023-11-06T06:42:57.436Z,10.60
2023-11-06T06:45:25.253Z,10.70
2023-11-06T06:47:53.146Z,10.70
2023-11-06T06:50:23.285Z,10.70
2023-11-06T06:52:51.429Z,10.60
2023-11-06T06:55:22.668Z,10.70
2023-11-06T06:57:50.596Z,10.60
2023-11-06T07:00:21.628Z,10.60
2023-11-06T07:02:51.214Z,10.60
2023-11-06T07:05:20.999Z,10.60
2023-11-06T07:07:49.083Z,10.60
2023-11-06T07:10:17.002Z,10.60
2023-11-06T07:12:45.452Z,10.60
2023-11-06T07:15:13.247Z,10.60
2023-11-06T07:17:42.470Z,10.60
2023-11-06T07:20:11.966Z,10.60
2023-11-06T07:22:39.829Z,10.60
2023-11-06T07:25:08.254Z,10.60
2023-11-06T07:27:36.622Z,10.60
2023-11-06T07:30:05.538Z,10.60
2023-11-06T07:32:35.736Z,10.60
2023-11-06T07:35:06.412Z,10.60
2023-11-06T07:37:34.613Z,10.60
2023-11-06T07:40:05.400Z,10.60
2023-11-06T07:42:33.250Z,10.60
2023-11-06T07:45:02.831Z,10.60
2023-11-06T07:47:32.272Z,10.60
2023-11-06T07:50:00.199Z,10.60
2023-11-06T07:52:31.662Z,10.60
2023-11-06T07:55:01.625Z,10.60
2023-11-06T07:57:30.879Z,10.60
2023-11-06T07:59:58.904Z,10.60
2023-11-06T08:02:26.952Z,10.60
2023-11-06T08:04:55.286Z,10.60
2023-11-06T08:07:26.300Z,10.60
2023-11-06T08:09:56.609Z,10.60
2023-11-06T08:12:24.596Z,10.60
2023-11-06T08:14:53.628Z,10.60
2023-11-06T08:17:22.040Z,10.60
2023-11-06T08:19:49.918Z,10.60
2023-11-06T08:22:17.757Z,10.60
2023-11-06T08:24:45.610Z,10.60
2023-11-06T08:27:14.773Z,10.60
2023-11-06T08:29:43.734Z,10.60
2023-11-06T08:32:12.863Z,10.70
2023-11-06T08:34:43.040Z,10.70
2023-11-06T08:37:12.245Z,10.60
2023-11-06T08:39:42.936Z,10.70
2023-11-06T08:42:11.286Z,10.70
2023-11-06T08:44:41.599Z,10.70
2023-11-06T08:47:09.839Z,10.70
2023-11-06T08:49:38.206Z,10.70
2023-11-06T08:52:07.087Z,10.80
2023-11-06T08:54:37.064Z,10.70
2023-11-06T08:57:05.819Z,10.70
2023-11-06T08:59:33.756Z,10.80
2023-11-06T09:02:03.982Z,10.80
2023-11-06T09:04:31.879Z,10.80
2023-11-06T09:07:00.688Z,10.80
2023-11-06T09:09:28.651Z,10.80
2023-11-06T09:11:56.948Z,10.80
2023-11-06T09:14:24.947Z,10.80
2023-11-06T09:16:52.780Z,10.80
2023-11-06T09:19:22.024Z,10.80
2023-11-06T09:21:50.669Z,10.80
2023-11-06T09:24:18.669Z,10.90
2023-11-06T09:26:47.495Z,10.90
2023-11-06T09:29:15.708Z,10.90
2023-11-06T09:31:43.817Z,10.90
2023-11-06T09:34:11.659Z,10.90
2023-11-06T09:36:41.676Z,10.90
2023-11-06T09:39:10.853Z,10.90
2023-11-06T09:41:39.313Z,11.00
2023-11-06T09:44:07.587Z,10.90
2023-11-06T09:46:37.712Z,11.00
2023-11-06T09:49:13.768Z,11.00
2023-11-06T09:51:45.902Z,11.00
2023-11-06T09:54:14.448Z,11.00
2023-11-06T09:56:46.604Z,11.00
2023-11-06T09:59:14.804Z,11.00
2023-11-06T10:01:43.945Z,11.00
2023-11-06T10:04:11.867Z,11.10
2023-11-06T10:06:39.773Z,11.10
2023-11-06T10:09:25.900Z,11.10
2023-11-06T10:11:59.554Z,11.10
2023-11-06T10:14:38.453Z,11.10
2023-11-06T10:17:06.868Z,11.10
2023-11-06T10:19:36.014Z,11.10
2023-11-06T10:22:14.100Z,11.20
2023-11-06T10:24:52.924Z,11.20
2023-11-06T10:27:27.221Z,11.20
2023-11-06T10:30:04.142Z,11.20
2023-11-06T10:32:32.944Z,11.30
2023-11-06T10:35:05.012Z,11.30
2023-11-06T10:37:42.870Z,11.30
2023-11-06T10:40:14.895Z,11.30
2023-11-06T10:42:44.684Z,11.30
2023-11-06T10:45:15.988Z,11.30
2023-11-06T10:47:49.880Z,11.30
2023-11-06T10:50:21.537Z,11.40
2023-11-06T10:52:54.672Z,11.40
2023-11-06T10:55:31.596Z,11.40
2023-11-06T10:58:02.568Z,11.40
2023-11-06T11:00:33.350Z,11.40
2023-11-06T11:03:02.849Z,11.50
2023-11-06T11:05:34.973Z,11.50
2023-11-06T11:08:06.299Z,11.50
2023-11-06T11:10:35.650Z,11.50
2023-11-06T11:13:04.818Z,11.50
2023-11-06T11:15:35.244Z,11.60
2023-11-06T11:18:06.950Z,11.60
2023-11-06T11:20:53.069Z,11.60
2023-11-06T11:23:36.461Z,11.60
2023-11-06T11:26:06.650Z,11.70
2023-11-06T11:28:59.765Z,11.70
2023-11-06T11:31:40.850Z,11.70
2023-11-06T11:34:11.670Z,11.70
2023-11-06T11:36:41.282Z,11.70
2023-11-06T11:39:16.999Z,11.70
2023-11-06T11:42:19.498Z,11.70
2023-11-06T11:44:53.761Z,11.80
2023-11-06T11:47:22.507Z,11.80
2023-11-06T11:49:50.738Z,11.80
2023-11-06T11:52:46.518Z,11.80
2023-11-06T11:55:29.753Z,11.80
2023-11-06T11:58:06.052Z,11.80
2023-11-06T12:00:38.644Z,11.80
2023-11-06T12:03:08.979Z,11.80
2023-11-06T12:05:38.704Z,11.80
2023-11-06T12:08:17.820Z,11.80
2023-11-06T12:10:46.558Z,11.80
2023-11-06T12:13:15.017Z,11.90
2023-11-06T12:15:44.668Z,11.90
2023-11-06T12:18:13.963Z,11.90
2023-11-06T12:20:42.015Z,11.90
2023-11-06T12:23:10.700Z,11.90
2023-11-06T12:25:40.316Z,11.90
2023-11-06T12:28:09.244Z,11.90
2023-11-06T12:30:40.216Z,11.90
2023-11-06T12:33:15.911Z,11.90
2023-11-06T12:35:44.912Z,11.90
2023-11-06T12:38:14.077Z,11.90
2023-11-06T12:40:46.004Z,11.90
2023-11-06T12:43:16.850Z,11.90
2023-11-06T12:45:45.934Z,11.90
2023-11-06T12:48:27.911Z,11.90
2023-11-06T12:51:01.781Z,11.90
2023-11-06T12:53:30.140Z,11.90
2023-11-06T12:55:58.169Z,11.90
2023-11-06T12:58:26.927Z,11.90
2023-11-06T13:00:57.822Z,12.00
2023-11-06T13:03:28.569Z,12.00
2023-11-06T13:05:58.652Z,12.00
2023-11-06T13:08:27.578Z,12.00
2023-11-06T13:10:59.482Z,12.00
2023-11-06T13:13:28.629Z,12.00
2023-11-06T13:15:58.104Z,12.10
2023-11-06T13:18:28.412Z,12.00
2023-11-06T13:20:57.529Z,12.00
2023-11-06T13:23:25.987Z,12.10
2023-11-06T13:25:54.870Z,12.10
2023-11-06T13:28:26.778Z,12.10
2023-11-06T13:30:56.714Z,12.10
2023-11-06T13:33:24.792Z,12.00
2023-11-06T13:35:54.730Z,12.00
2023-11-06T13:38:22.876Z,12.00
2023-11-06T13:40:52.488Z,12.00
2023-11-06T13:43:22.587Z,12.00
2023-11-06T13:45:50.514Z,12.00
2023-11-06T13:48:19.298Z,12.00
2023-11-06T13:50:52.192Z,12.10
2023-11-06T13:53:24.995Z,12.10
2023-11-06T13:56:10.741Z,12.00
2023-11-06T13:58:42.093Z,12.00
2023-11-06T14:01:13.733Z,12.00
2023-11-06T14:03:44.797Z,12.00
2023-11-06T14:06:18.606Z,12.00
2023-11-06T14:08:49.649Z,12.00
2023-11-06T14:11:18.017Z,12.00
2023-11-06T14:13:48.152Z,12.00
2023-11-06T14:16:17.884Z,11.90
2023-11-06T14:18:46.938Z,11.90
2023-11-06T14:21:14.765Z,11.90
2023-11-06T14:23:42.895Z,11.90
2023-11-06T14:26:15.004Z,11.90
2023-11-06T14:28:42.909Z,11.90
2023-11-06T14:31:12.826Z,11.90
2023-11-06T14:33:40.873Z,11.90
2023-11-06T14:36:10.301Z,11.90
2023-11-06T14:38:38.104Z,11.90
2023-11-06T14:41:06.630Z,11.90
2023-11-06T14:43:36.198Z,11.80
2023-11-06T14:46:05.290Z,11.80
2023-11-06T14:48:34.059Z,11.80
2023-11-06T14:51:02.207Z,11.80
2023-11-06T14:56:00.880Z,11.80
2023-11-06T14:58:30.057Z,11.80
2023-11-06T15:01:02.211Z,11.80
2023-11-06T15:03:31.125Z,11.80
2023-11-06T15:06:00.613Z,11.70
2023-11-06T15:08:29.497Z,11.70
2023-11-06T15:10:57.361Z,11.70
2023-11-06T15:13:25.901Z,11.70
2023-11-06T15:15:55.089Z,11.70
2023-11-06T15:18:26.010Z,11.70
2023-11-06T15:20:53.938Z,11.70
2023-11-06T15:23:21.811Z,11.70
2023-11-06T15:25:49.644Z,11.60
2023-11-06T15:28:17.512Z,11.70
2023-11-06T15:30:47.032Z,11.60
2023-11-06T15:33:16.000Z,11.60
2023-11-06T15:35:45.476Z,11.60
2023-11-06T15:38:13.446Z,11.60
2023-11-06T15:40:41.905Z,11.60
2023-11-06T15:43:09.691Z,11.60
2023-11-06T15:45:37.808Z,11.60
2023-11-06T15:48:06.113Z,11.60
2023-11-06T15:50:36.346Z,11.60
2023-11-06T15:53:05.858Z,11.60
2023-11-06T15:55:35.365Z,11.60
2023-11-06T15:58:03.233Z,11.50
2023-11-06T16:00:33.656Z,11.50
2023-11-06T16:03:03.814Z,11.50
2023-11-06T16:05:32.512Z,11.50
2023-11-06T16:08:00.574Z,11.50
2023-11-06T16:10:34.259Z,11.50
2023-11-06T16:13:03.957Z,11.50
2023-11-06T16:15:32.621Z,11.50
2023-11-06T16:18:01.066Z,11.50
2023-11-06T16:20:29.166Z,11.50
2023-11-06T16:23:02.564Z,11.40
2023-11-06T16:25:31.807Z,11.40
2023-11-06T16:28:02.328Z,11.40
2023-11-06T16:30:32.491Z,11.40
2023-11-06T16:33:00.627Z,11.40
2023-11-06T16:35:30.013Z,11.40
2023-11-06T16:37:58.083Z,11.40
2023-11-06T16:40:25.910Z,11.30
2023-11-06T16:42:55.073Z,11.30
2023-11-06T16:45:24.525Z,11.30
2023-11-06T16:47:52.506Z,11.30
2023-11-06T16:50:24.672Z,11.30
2023-11-06T16:52:53.242Z,11.30
2023-11-06T16:55:21.120Z,11.30
2023-11-06T16:57:49.000Z,11.30
2023-11-06T17:00:18.339Z,11.30
2023-11-06T17:02:46.438Z,11.30
2023-11-06T17:05:15.854Z,11.30
2023-11-06T17:07:44.713Z,11.30
2023-11-06T17:10:13.592Z,11.20
2023-11-06T17:12:41.473Z,11.20
2023-11-06T17:15:11.399Z,11.20
2023-11-06T17:17:41.085Z,11.20
2023-11-06T17:20:12.420Z,11.20
2023-11-06T17:22:40.705Z,11.20
2023-11-06T17:25:10.542Z,11.20
2023-11-06T17:27:39.316Z,11.20
2023-11-06T17:30:10.566Z,11.20
2023-11-06T17:32:40.016Z,11.20
2023-11-06T17:35:10.141Z,11.20
2023-11-06T17:37:38.385Z,11.20
2023-11-06T17:40:11.084Z,11.10
2023-11-06T17:42:43.172Z,11.20
2023-11-06T17:45:13.352Z,11.10
2023-11-06T17:47:42.953Z,11.20
2023-11-06T17:50:13.646Z,11.10
2023-11-06T17:52:41.538Z,11.10
2023-11-06T17:55:10.317Z,11.10
2023-11-06T17:57:38.211Z,11.10
2023-11-06T18:00:08.011Z,11.10
2023-11-06T18:02:36.157Z,11.10
2023-11-06T18:05:08.003Z,11.10
2023-11-06T18:07:36.337Z,11.10
2023-11-06T18:10:05.146Z,11.10
2023-11-06T18:12:33.183Z,11.10
2023-11-06T18:15:00.977Z,11.10
2023-11-06T18:17:29.115Z,11.10
2023-11-06T18:19:58.162Z,11.10
2023-11-06T18:22:28.016Z,11.10
2023-11-06T18:24:56.721Z,11.10
2023-11-06T18:27:25.630Z,11.10
2023-11-06T18:29:53.742Z,11.00
2023-11-06T18:32:22.027Z,11.00
2023-11-06T18:34:49.998Z,11.00
2023-11-06T18:37:18.774Z,11.00
2023-11-06T18:39:47.909Z,11.00
2023-11-06T18:42:16.759Z,11.00
2023-11-06T18:44:46.102Z,11.00
2023-11-06T18:47:17.090Z,11.00
2023-11-06T18:49:45.775Z,11.00
2023-11-06T18:52:15.000Z,11.00
2023-11-06T18:54:43.886Z,11.00
2023-11-06T18:57:19.040Z,11.00
2023-11-06T18:59:48.342Z,11.00
2023-11-06T19:02:17.037Z,11.00
2023-11-06T19:04:46.014Z,11.00
2023-11-06T19:07:15.290Z,11.00
2023-11-06T19:09:43.715Z,10.90
2023-11-06T19:12:12.937Z,10.90
2023-11-06T19:14:41.336Z,10.90
2023-11-06T19:17:10.560Z,10.90
2023-11-06T19:19:38.452Z,10.90
2023-11-06T19:22:07.151Z,10.90
2023-11-06T19:24:35.404Z,10.90
2023-11-06T19:27:03.265Z,10.80
2023-11-06T19:29:32.600Z,10.80
2023-11-06T19:32:01.285Z,10.80
2023-11-06T19:34:30.100Z,10.80
2023-11-06T19:36:57.988Z,10.80
2023-11-06T19:39:25.801Z,10.80
2023-11-06T19:41:54.912Z,10.80
2023-11-06T19:44:23.766Z,10.80
2023-11-06T19:46:52.985Z,10.80
2023-11-06T19:49:21.035Z,10.80
2023-11-06T19:51:48.954Z,10.80
2023-11-06T19:54:18.710Z,10.70
2023-11-06T19:56:47.239Z,10.70
2023-11-06T19:59:34.732Z,10.70
2023-11-06T20:02:06.377Z,10.70
2023-11-06T20:04:34.336Z,10.60
2023-11-06T20:07:02.204Z,10.60
2023-11-06T20:09:30.095Z,10.60
2023-11-06T20:11:57.991Z,10.60
2023-11-06T20:14:25.830Z,10.60
2023-11-06T20:16:55.151Z,10.60
2023-11-06T20:19:24.809Z,10.60
2023-11-06T20:21:53.388Z,10.60
2023-11-06T20:24:21.325Z,10.60
2023-11-06T20:26:49.742Z,10.50
2023-11-06T20:29:17.796Z,10.50
2023-11-06T20:31:45.744Z,10.60
2023-11-06T20:34:13.758Z,10.50
2023-11-06T20:36:46.250Z,10.50
2023-11-06T20:39:17.494Z,10.50
2023-11-06T20:41:45.977Z,10.50
2023-11-06T20:44:13.963Z,10.50
2023-11-06T20:46:45.619Z,10.50
2023-11-06T20:49:13.852Z,10.50
2023-11-06T20:51:42.950Z,10.50
2023-11-06T20:54:14.236Z,10.40
2023-11-06T20:56:43.517Z,10.50
2023-11-06T20:59:12.186Z,10.50
2023-11-06T21:01:41.620Z,10.40
2023-11-06T21:04:09.839Z,10.40
2023-11-06T21:06:37.885Z,10.40
2023-11-06T21:09:07.151Z,10.40
2023-11-06T21:11:38.696Z,10.40
2023-11-06T21:14:06.606Z,10.40
2023-11-06T21:16:37.210Z,10.40
2023-11-06T21:19:05.908Z,10.40
2023-11-06T21:21:34.432Z,10.40
2023-11-06T21:24:02.805Z,10.40
2023-11-06T21:26:32.410Z,10.30
2023-11-06T21:29:01.627Z,10.30
2023-11-06T21:31:30.163Z,10.30
2023-11-06T21:33:59.232Z,10.30
2023-11-06T21:36:26.839Z,10.30
2023-11-06T21:38:57.415Z,10.30
2023-11-06T21:41:25.947Z,10.30
2023-11-06T21:43:53.804Z,10.30
2023-11-06T21:46:23.080Z,10.30
2023-11-06T21:48:51.257Z,10.30
2023-11-06T21:51:19.337Z,10.20
2023-11-06T21:53:47.235Z,10.30
2023-11-06T21:56:15.165Z,10.30
2023-11-06T21:58:43.002Z,10.30
2023-11-06T22:01:19.136Z,10.30
2023-11-06T22:03:48.713Z,10.30
2023-11-06T22:06:18.925Z,10.30
2023-11-06T22:08:46.902Z,10.20
2023-11-06T22:11:14.859Z,10.30
2023-11-06T22:13:42.936Z,10.20
2023-11-06T22:16:10.855Z,10.30
2023-11-06T22:18:38.870Z,10.20
2023-11-06T22:21:08.742Z,10.30
2023-11-06T22:23:38.483Z,10.30
2023-11-06T22:26:07.138Z,10.20
2023-11-06T22:28:34.921Z,10.20
2023-11-06T22:31:03.381Z,10.20
2023-11-06T22:33:31.481Z,10.20
2023-11-06T22:35:59.432Z,10.20
2023-11-06T22:38:28.570Z,10.20
2023-11-06T22:40:56.446Z,10.20
2023-11-06T22:43:24.851Z,10.20
2023-11-06T22:45:53.308Z,10.20
2023-11-06T22:48:22.002Z,10.20
2023-11-06T22:50:49.986Z,10.20
2023-11-06T22:53:20.767Z,10.20
2023-11-06T22:55:50.125Z,10.20
2023-11-06T22:58:18.862Z,10.20
2023-11-06T23:00:48.100Z,10.20
2023-11-06T23:03:16.228Z,10.20
2023-11-06T23:05:46.764Z,10.20
2023-11-06T23:08:15.183Z,10.20
2023-11-06T23:10:45.030Z,10.20
2023-11-06T23:13:14.245Z,10.20
2023-11-06T23:15:42.203Z,10.20
2023-11-06T23:18:10.145Z,10.10
2023-11-06T23:20:38.251Z,10.10
2023-11-06T23:23:07.994Z,10.10
2023-11-06T23:25:38.920Z,10.10
2023-11-06T23:28:10.213Z,10.10
2023-11-06T23:30:42.295Z,10.10
2023-11-06T23:33:10.556Z,10.10
2023-11-06T23:35:38.541Z,10.20
2023-11-06T23:38:06.345Z,10.10
2023-11-06T23:40:34.710Z,10.10
2023-11-06T23:43:03.907Z,10.10
2023-11-06T23:45:31.888Z,10.10
2023-11-06T23:48:01.232Z,10.10
2023-11-06T23:50:29.282Z,10.10
2023-11-06T23:52:57.128Z,10.10
2023-11-06T23:55:25.265Z,10.10
2023-11-06T23:57:53.084Z,10.10
